TimeEST,TemperatureF,Dew PointF,Humidity,Sea Level PressureIn,VisibilityMPH,Wind Direction,Wind SpeedMPH,Gust SpeedMPH,PrecipitationIn,Events,Conditions,WindDirDegrees,DateUTC
12:51 AM,32.0,28.0,85,30.38,9.0,Calm,Calm,-,N/A,,Clear,0,2013-01-09 05:51:00
1:51 AM,30.0,27.0,88,30.37,8.0,Calm,Calm,-,N/A,,Clear,0,2013-01-09 06:51:00
2:51 AM,28.9,26.1,89,30.38,7.0,Calm,Calm,-,N/A,,Clear,0,2013-01-09 07:51:00
3:51 AM,33.1,28.0,82,30.36,9.0,Calm,Calm,-,N/A,,Overcast,0,2013-01-09 08:51:00
4:51 AM,30.9,28.0,89,30.36,8.0,Calm,Calm,-,N/A,,Overcast,0,2013-01-09 09:51:00
5:51 AM,32.0,27.0,82,30.36,9.0,Calm,Calm,-,N/A,,Partly Cloudy,0,2013-01-09 10:51:00
6:51 AM,32.0,27.0,82,30.36,9.0,North,3.5,-,N/A,,Partly Cloudy,360,2013-01-09 11:51:00
7:51 AM,30.0,26.1,85,30.38,7.0,NNW,3.5,-,N/A,,Clear,330,2013-01-09 12:51:00
8:51 AM,33.8,26.6,75,30.38,8.0,Calm,Calm,-,N/A,,Clear,0,2013-01-09 13:51:00
9:51 AM,37.9,30.0,73,30.37,6.0,ESE,6.9,-,N/A,,Haze,110,2013-01-09 14:51:00
10:51 AM,41.0,30.0,65,30.31,6.0,Calm,Calm,-,N/A,,Haze,0,2013-01-09 15:51:00
11:51 AM,44.6,33.8,66,30.28,6.0,SW,4.6,-,N/A,,Haze,220,2013-01-09 16:51:00
12:51 PM,45.0,34.0,65,30.24,6.0,SSW,4.6,-,N/A,,Haze,200,2013-01-09 17:51:00
1:51 PM,46.0,34.0,63,30.25,9.0,SW,9.2,-,N/A,,Overcast,230,2013-01-09 18:51:00
2:51 PM,46.0,35.1,66,30.14,9.0,South,9.2,-,N/A,,Overcast,190,2013-01-09 19:51:00
3:51 PM,46.0,36.0,68,30.14,10.0,SW,5.8,-,N/A,,Scattered Clouds,220,2013-01-09 20:51:00
4:51 PM,48.0,37.0,66,30.15,10.0,Variable,6.9,-,N/A,,Mostly Cloudy,0,2013-01-09 21:51:00
5:51 PM,46.0,36.0,68,30.15,10.0,SSW,4.6,-,N/A,,Mostly Cloudy,210,2013-01-09 22:51:00
6:51 PM,46.4,35.6,66,30.17,10.0,SW,9.2,-,N/A,,Clear,230,2013-01-09 23:51:00
7:51 PM,46.0,36.0,68,30.18,10.0,WSW,11.5,-,N/A,,Clear,240,2013-01-10 00:51:00
8:51 PM,45.0,36.0,71,30.17,10.0,SW,11.5,-,N/A,,Clear,230,2013-01-10 01:51:00
9:51 PM,46.0,34.0,63,30.18,10.0,SW,12.7,-,N/A,,Clear,230,2013-01-10 02:51:00
10:51 PM,45.0,33.1,63,30.20,10.0,WSW,10.4,-,N/A,,Clear,240,2013-01-10 03:51:00
11:51 PM,45.0,32.0,60,30.21,10.0,West,8.1,-,N/A,,Clear,260,2013-01-10 04:51:00